Time;durP1;ratioP1;P1;durP2;ratioP2;P2;SDS_P1;SDS_P2;PMS_P1;PMS_P2;Temp;Humidity;BMP_temperature;BMP_pressure;BME280_temperature;BME280_humidity;BME280_pressure;Samples;Min_cycle;Max_cycle;Signal;HPM_P1;HPM_P2
2022/08/19 00:00:52;;;;;;;1.63;0.77;;;;;;;;;;4921110;28;20055;-67
2022/08/19 00:03:23;;;;;;;1.42;0.90;;;;;;;;;;4981593;28;20050;-66
2022/08/19 00:05:53;;;;;;;1.20;0.70;;;;;;;;;;4961664;28;20072;-66
2022/08/19 00:08:24;;;;;;;5.38;2.60;;;;;;;;;;5032824;28;20559;-66
2022/08/19 00:10:54;;;;;;;1.00;0.40;;;;;;;;;;5048243;28;20462;-66
2022/08/19 00:13:26;;;;;;;4.68;0.77;;;;;;;;;;5028053;28;20067;-66
2022/08/19 00:15:58;;;;;;;1.42;0.60;;;;;;;;;;5000036;28;20059;-65
2022/08/19 00:18:29;;;;;;;4.70;2.65;;;;;;;;;;4969479;28;20058;-66
2022/08/19 00:21:00;;;;;;;6.20;3.22;;;;;;;;;;4969643;28;20059;-65
2022/08/19 00:23:31;;;;;;;6.50;1.60;;;;;;;;;;4981014;28;20503;-65
2022/08/19 00:26:03;;;;;;;10.60;4.68;;;;;;;;;;4988995;28;20050;-65
2022/08/19 00:28:40;;;;;;;3.97;1.50;;;;;;;;;;4988456;28;20058;-65
2022/08/19 00:31:16;;;;;;;3.60;1.00;;;;;;;;;;4973190;28;20050;-65
2022/08/19 00:33:47;;;;;;;1.40;0.60;;;;;;;;;;4956737;28;20054;-66
2022/08/19 00:36:18;;;;;;;0.80;0.80;;;;;;;;;;4961318;28;20051;-65
2022/08/19 00:38:49;;;;;;;1.23;0.90;;;;;;;;;;4988188;28;20043;-66
2022/08/19 00:41:22;;;;;;;2.88;0.40;;;;;;;;;;4988412;28;20458;-66
2022/08/19 00:44:06;;;;;;;1.40;0.80;;;;;;;;;;4988564;28;20058;-65
2022/08/19 00:46:38;;;;;;;0.70;0.50;;;;;;;;;;4988367;28;20063;-65
2022/08/19 00:49:21;;;;;;;2.15;1.35;;;;;;;;;;4965470;28;20052;-65
2022/08/19 00:52:13;;;;;;;1.85;0.90;;;;;;;;;;4985235;28;20042;-66
2022/08/19 00:54:44;;;;;;;2.72;1.10;;;;;;;;;;4922525;28;20555;-65
2022/08/19 00:57:35;;;;;;;1.13;0.70;;;;;;;;;;4932049;29;20059;-66
2022/08/19 01:00:12;;;;;;;1.58;0.80;;;;;;;;;;4884110;29;20056;-67
2022/08/19 01:02:43;;;;;;;2.28;0.90;;;;;;;;;;4915398;29;20060;-67
2022/08/19 01:05:20;;;;;;;2.08;0.82;;;;;;;;;;4915646;29;20051;-66
2022/08/19 01:07:51;;;;;;;2.05;0.93;;;;;;;;;;4915268;29;20060;-67
2022/08/19 01:10:27;;;;;;;2.42;0.80;;;;;;;;;;4915025;29;20064;-66
2022/08/19 01:13:05;;;;;;;2.05;1.20;;;;;;;;;;4915289;29;20052;-66
2022/08/19 01:15:50;;;;;;;2.40;2.28;;;;;;;;;;4900168;29;20063;-68
2022/08/19 01:18:21;;;;;;;;;;;;;;;;;;4934848;29;20063;-67
2022/08/19 01:20:54;;;;;;;1.02;0.65;;;;;;;;;;4934377;29;19922;-67
2022/08/19 01:23:42;;;;;;;1.17;0.70;;;;;;;;;;4972438;28;20055;-66
2022/08/19 01:26:17;;;;;;;1.20;0.60;;;;;;;;;;4977519;28;20051;-66
2022/08/19 01:28:51;;;;;;;3.53;0.82;;;;;;;;;;4995819;28;20062;-66
2022/08/19 01:31:25;;;;;;;1.10;0.43;;;;;;;;;;4959375;28;20420;-67
2022/08/19 01:33:58;;;;;;;1.05;0.60;;;;;;;;;;4991628;28;20069;-67
2022/08/19 01:36:32;;;;;;;0.82;0.32;;;;;;;;;;4991856;28;20409;-66
2022/08/19 01:39:07;;;;;;;1.70;0.90;;;;;;;;;;4976308;28;20054;-67
2022/08/19 01:41:38;;;;;;;1.40;1.17;;;;;;;;;;4952727;28;20051;-67
2022/08/19 01:44:10;;;;;;;1.42;0.63;;;;;;;;;;4952866;28;20054;-67
2022/08/19 01:46:48;;;;;;;1.38;0.55;;;;;;;;;;4952956;28;20055;-67
2022/08/19 01:49:21;;;;;;;1.00;0.55;;;;;;;;;;4971871;28;20081;-67
2022/08/19 01:51:54;;;;;;;1.38;0.75;;;;;;;;;;4956110;28;20078;-67
2022/08/19 01:54:25;;;;;;;1.13;0.80;;;;;;;;;;4970440;28;20069;-67
2022/08/19 01:57:04;;;;;;;1.23;0.70;;;;;;;;;;4936433;28;20111;-66
2022/08/19 01:59:36;;;;;;;0.90;0.60;;;;;;;;;;4971771;28;20057;-67
2022/08/19 02:02:10;;;;;;;1.27;0.60;;;;;;;;;;4971988;28;20055;-66
2022/08/19 02:04:41;;;;;;;1.30;0.60;;;;;;;;;;4971834;28;20062;-67
2022/08/19 02:07:11;;;;;;;1.02;0.90;;;;;;;;;;4938455;28;20054;-67
2022/08/19 02:09:41;;;;;;;0.60;0.30;;;;;;;;;;4962901;28;20456;-67
2022/08/19 02:12:12;;;;;;;2.05;0.90;;;;;;;;;;4971554;28;20059;-67
2022/08/19 02:14:43;;;;;;;1.75;0.60;;;;;;;;;;4932941;29;20070;-67
2022/08/19 02:17:13;;;;;;;0.98;0.50;;;;;;;;;;4917895;29;20056;-66
2022/08/19 02:19:43;;;;;;;1.48;0.50;;;;;;;;;;4927434;28;20515;-67
2022/08/19 02:22:14;;;;;;;1.52;0.60;;;;;;;;;;4971670;28;20086;-67
2022/08/19 02:24:46;;;;;;;0.77;0.20;;;;;;;;;;4971515;28;20427;-66
2022/08/19 02:27:16;;;;;;;1.13;0.73;;;;;;;;;;4959486;28;20059;-67
2022/08/19 02:29:48;;;;;;;2.92;1.02;;;;;;;;;;4921254;28;20608;-66
2022/08/19 02:32:20;;;;;;;0.57;0.47;;;;;;;;;;4952109;28;20175;-66
2022/08/19 02:34:51;;;;;;;3.20;1.40;;;;;;;;;;4963885;28;20062;-67
2022/08/19 02:40:10;;;;;;;1.27;0.70;;;;;;;;;;5030134;28;20060;-67
2022/08/19 02:42:42;;;;;;;1.25;0.73;;;;;;;;;;5030058;28;20046;-66
2022/08/19 02:45:14;;;;;;;1.20;0.60;;;;;;;;;;5013700;28;20057;-67
2022/08/19 02:47:45;;;;;;;4.88;0.85;;;;;;;;;;5056638;28;20052;-67
2022/08/19 02:50:16;;;;;;;0.82;0.52;;;;;;;;;;5069868;28;20052;-67
2022/08/19 02:52:46;;;;;;;1.73;0.60;;;;;;;;;;5050012;28;20044;-67
2022/08/19 02:55:16;;;;;;;4.45;0.63;;;;;;;;;;5092722;28;20047;-67
2022/08/19 02:57:47;;;;;;;1.50;0.60;;;;;;;;;;5092450;28;20048;-66
2022/08/19 03:00:18;;;;;;;1.25;0.50;;;;;;;;;;5092654;28;20043;-68
2022/08/19 03:02:48;;;;;;;1.73;0.30;;;;;;;;;;5091284;28;20404;-67
2022/08/19 03:05:19;;;;;;;0.63;0.52;;;;;;;;;;5069323;28;20063;-67
2022/08/19 03:08:12;;;;;;;0.68;0.30;;;;;;;;;;5069509;28;20056;-66
2022/08/19 03:10:45;;;;;;;2.10;1.00;;;;;;;;;;5035922;28;20044;-67
2022/08/19 03:13:17;;;;;;;1.02;0.52;;;;;;;;;;5019697;28;20099;-66
2022/08/19 03:15:48;;;;;;;2.67;0.57;;;;;;;;;;5069044;28;20057;-66
2022/08/19 03:18:19;;;;;;;0.77;0.60;;;;;;;;;;5035654;28;20468;-67
2022/08/19 03:20:54;;;;;;;1.27;0.75;;;;;;;;;;5036700;28;20604;-67
2022/08/19 03:23:24;;;;;;;0.93;0.60;;;;;;;;;;5069071;28;20059;-67
2022/08/19 03:25:54;;;;;;;1.05;0.65;;;;;;;;;;5069121;28;20048;-67
2022/08/19 03:28:49;;;;;;;1.13;0.95;;;;;;;;;;5029078;28;20187;-66
2022/08/19 03:31:27;;;;;;;2.05;0.30;;;;;;;;;;5029001;28;20413;-66
2022/08/19 03:34:27;;;;;;;0.95;0.50;;;;;;;;;;4995792;28;20064;-66
2022/08/19 03:37:03;;;;;;;1.52;0.60;;;;;;;;;;4993433;28;20056;-67
2022/08/19 03:39:36;;;;;;;3.80;0.50;;;;;;;;;;5008890;28;20498;-67
2022/08/19 03:42:07;;;;;;;0.73;0.47;;;;;;;;;;5006114;28;20062;-67
2022/08/19 03:44:58;;;;;;;0.60;0.43;;;;;;;;;;4989263;28;20062;-67
2022/08/19 03:47:28;;;;;;;1.38;1.27;;;;;;;;;;5011334;28;20058;-66
2022/08/19 03:49:59;;;;;;;0.93;0.93;;;;;;;;;;5044891;28;20497;-67
2022/08/19 03:52:29;;;;;;;0.52;0.20;;;;;;;;;;5011885;28;20457;-66
2022/08/19 03:54:59;;;;;;;0.85;0.60;;;;;;;;;;5028312;28;20049;-67
2022/08/19 03:57:29;;;;;;;0.65;0.20;;;;;;;;;;5028674;28;20401;-66
2022/08/19 04:00:01;;;;;;;1.52;0.70;;;;;;;;;;4995671;28;20046;-66
2022/08/19 04:02:43;;;;;;;0.40;0.38;;;;;;;;;;5028798;28;20057;-67
2022/08/19 04:05:29;;;;;;;1.25;0.60;;;;;;;;;;5030838;28;20064;-66
2022/08/19 04:08:00;;;;;;;0.80;0.60;;;;;;;;;;5048402;28;20056;-67
2022/08/19 04:10:31;;;;;;;0.73;0.60;;;;;;;;;;5048123;28;20056;-67
2022/08/19 04:13:01;;;;;;;0.85;0.77;;;;;;;;;;5048087;28;20061;-66
2022/08/19 04:15:38;;;;;;;0.50;0.38;;;;;;;;;;5048155;28;20432;-66
2022/08/19 04:18:10;;;;;;;1.00;0.60;;;;;;;;;;5066462;28;20059;-66
2022/08/19 04:20:43;;;;;;;0.95;0.47;;;;;;;;;;5068296;28;20381;-66
2022/08/19 04:23:15;;;;;;;1.75;1.63;;;;;;;;;;5052411;28;20079;-67
2022/08/19 04:25:45;;;;;;;1.05;0.73;;;;;;;;;;5079855;28;20488;-67
2022/08/19 04:28:15;;;;;;;1.23;1.13;;;;;;;;;;5072437;28;20052;-66
2022/08/19 04:30:49;;;;;;;0.85;0.70;;;;;;;;;;5089078;28;20040;-67
2022/08/19 04:33:23;;;;;;;1.23;0.70;;;;;;;;;;5090730;28;20046;-67
2022/08/19 04:35:58;;;;;;;3.67;2.15;;;;;;;;;;5090671;28;20514;-67
2022/08/19 04:38:28;;;;;;;1.17;0.60;;;;;;;;;;5055227;28;20059;-67
2022/08/19 04:43:48;;;;;;;0.82;0.82;;;;;;;;;;5088096;28;20052;-66
2022/08/19 04:46:19;;;;;;;0.80;0.55;;;;;;;;;;5088087;28;20742;-67
2022/08/19 04:49:10;;;;;;;1.02;0.55;;;;;;;;;;5034125;28;20059;-65
2022/08/19 04:51:44;;;;;;;0.93;0.50;;;;;;;;;;5088226;28;20063;-66
2022/08/19 04:54:16;;;;;;;1.10;0.70;;;;;;;;;;5037826;28;20048;-66
2022/08/19 04:57:09;;;;;;;1.98;1.30;;;;;;;;;;5071130;28;20048;-67
2022/08/19 04:59:39;;;;;;;0.63;0.60;;;;;;;;;;5071936;28;20151;-66
2022/08/19 05:02:10;;;;;;;0.80;0.70;;;;;;;;;;5071587;28;20056;-66
2022/08/19 05:04:41;;;;;;;1.30;0.60;;;;;;;;;;5088169;28;20059;-66
2022/08/19 05:07:11;;;;;;;0.70;0.30;;;;;;;;;;5054448;28;21038;-67
2022/08/19 05:09:42;;;;;;;1.00;0.63;;;;;;;;;;5087843;28;20055;-67
2022/08/19 05:12:28;;;;;;;1.08;0.98;;;;;;;;;;5052880;28;20055;-66
2022/08/19 05:15:00;;;;;;;1.75;1.10;;;;;;;;;;5067680;28;20123;-66
2022/08/19 05:17:30;;;;;;;1.48;0.70;;;;;;;;;;5047300;28;20060;-66
2022/08/19 05:22:56;;;;;;;1.17;0.65;;;;;;;;;;4998269;28;20060;-66
2022/08/19 05:25:27;;;;;;;0.68;0.60;;;;;;;;;;5047492;28;20049;-67
2022/08/19 05:27:57;;;;;;;3.88;1.40;;;;;;;;;;5047366;28;20053;-67
2022/08/19 05:30:27;;;;;;;0.90;0.50;;;;;;;;;;5047524;28;20068;-66
2022/08/19 05:33:15;;;;;;;0.95;0.70;;;;;;;;;;5047614;28;20045;-66
2022/08/19 05:35:48;;;;;;;1.95;1.02;;;;;;;;;;5047495;28;20053;-66
2022/08/19 05:38:19;;;;;;;1.23;0.60;;;;;;;;;;4987620;28;20058;-66
2022/08/19 05:40:49;;;;;;;1.15;0.50;;;;;;;;;;4940726;28;20061;-67
2022/08/19 05:43:20;;;;;;;0.70;0.55;;;;;;;;;;4991893;28;20069;-67
2022/08/19 05:45:50;;;;;;;1.33;0.70;;;;;;;;;;4976047;28;20050;-66
2022/08/19 05:48:21;;;;;;;1.38;0.32;;;;;;;;;;4937236;28;20439;-66
2022/08/19 05:50:51;;;;;;;0.98;0.60;;;;;;;;;;4890178;29;20060;-66
2022/08/19 05:53:21;;;;;;;0.75;0.60;;;;;;;;;;4933365;29;20059;-67
2022/08/19 05:55:52;;;;;;;1.33;0.35;;;;;;;;;;4963948;28;20418;-67
2022/08/19 05:58:24;;;;;;;1.15;0.70;;;;;;;;;;4972093;28;20047;-66
2022/08/19 06:00:56;;;;;;;1.48;0.82;;;;;;;;;;4972082;28;20054;-67
2022/08/19 06:03:27;;;;;;;2.25;0.40;;;;;;;;;;4971952;28;20674;-66
2022/08/19 06:05:59;;;;;;;2.92;0.45;;;;;;;;;;4939979;28;20574;-67
2022/08/19 06:08:29;;;;;;;2.00;0.98;;;;;;;;;;4975277;28;20042;-66
2022/08/19 06:11:23;;;;;;;1.83;0.60;;;;;;;;;;4991417;28;20057;-67
2022/08/19 06:13:55;;;;;;;1.42;0.90;;;;;;;;;;4957639;28;20047;-67
2022/08/19 06:16:31;;;;;;;1.70;0.88;;;;;;;;;;4951206;28;20069;-67
2022/08/19 06:19:06;;;;;;;1.33;0.75;;;;;;;;;;5006778;28;20053;-67
2022/08/19 06:21:40;;;;;;;1.45;0.70;;;;;;;;;;4990986;28;20062;-67
2022/08/19 06:24:13;;;;;;;1.65;0.80;;;;;;;;;;4991066;28;20529;-67
2022/08/19 06:26:47;;;;;;;0.95;0.75;;;;;;;;;;4977939;28;20069;-67
2022/08/19 06:29:25;;;;;;;2.17;0.77;;;;;;;;;;4979163;28;20069;-67
2022/08/19 06:31:58;;;;;;;1.75;0.50;;;;;;;;;;4963857;28;20453;-67
2022/08/19 06:34:29;;;;;;;;;;;;;;;;;;4990968;28;20039;-67
2022/08/19 06:37:01;;;;;;;0.85;0.60;;;;;;;;;;4959142;28;19922;-67
2022/08/19 06:39:35;;;;;;;1.58;0.98;;;;;;;;;;4990477;28;20057;-67
2022/08/19 06:42:09;;;;;;;1.33;0.60;;;;;;;;;;4990739;28;20054;-67
2022/08/19 06:44:41;;;;;;;0.90;0.75;;;;;;;;;;4971092;28;20054;-67
2022/08/19 06:47:20;;;;;;;4.95;1.23;;;;;;;;;;4971082;28;20062;-67
2022/08/19 06:50:02;;;;;;;2.75;1.00;;;;;;;;;;4971027;28;20059;-67
2022/08/19 06:52:34;;;;;;;0.80;0.73;;;;;;;;;;4988627;28;20073;-67
2022/08/19 06:55:07;;;;;;;1.27;0.65;;;;;;;;;;4957995;28;20061;-67
2022/08/19 06:57:37;;;;;;;1.30;0.80;;;;;;;;;;4937535;28;20067;-67
2022/08/19 07:00:15;;;;;;;1.17;0.70;;;;;;;;;;4951580;28;20052;-67
2022/08/19 07:02:46;;;;;;;1.25;0.82;;;;;;;;;;4932317;29;20048;-67
2022/08/19 07:05:23;;;;;;;1.67;1.23;;;;;;;;;;4932238;29;20508;-67
2022/08/19 07:07:53;;;;;;;1.25;0.63;;;;;;;;;;4951203;28;20055;-67
2022/08/19 07:10:26;;;;;;;1.42;0.90;;;;;;;;;;4966578;28;20058;-67
2022/08/19 07:12:56;;;;;;;1.20;1.10;;;;;;;;;;5006627;28;20062;-67
2022/08/19 07:15:26;;;;;;;1.65;0.90;;;;;;;;;;5009422;28;20064;-67
2022/08/19 07:17:57;;;;;;;0.70;0.68;;;;;;;;;;4961106;28;20062;-67
2022/08/19 07:20:28;;;;;;;2.85;0.80;;;;;;;;;;5009523;28;20061;-67
2022/08/19 07:22:58;;;;;;;1.42;0.82;;;;;;;;;;5025188;28;20065;-67
2022/08/19 07:25:29;;;;;;;2.25;0.98;;;;;;;;;;5029602;28;20049;-67
2022/08/19 07:28:01;;;;;;;0.88;0.70;;;;;;;;;;5029313;28;20096;-67
2022/08/19 07:30:32;;;;;;;1.17;0.65;;;;;;;;;;5029089;28;20049;-67
2022/08/19 07:33:02;;;;;;;1.65;0.85;;;;;;;;;;5029373;28;20501;-67
2022/08/19 07:35:33;;;;;;;1.65;0.70;;;;;;;;;;5020770;28;20558;-67
2022/08/19 07:38:04;;;;;;;1.40;0.80;;;;;;;;;;5068863;28;20044;-67
2022/08/19 07:40:34;;;;;;;1.05;0.50;;;;;;;;;;5055476;28;20055;-67
2022/08/19 07:43:05;;;;;;;2.88;0.82;;;;;;;;;;5091489;28;20048;-67
2022/08/19 07:45:42;;;;;;;1.50;0.75;;;;;;;;;;5073825;28;20071;-67
2022/08/19 07:48:14;;;;;;;1.42;0.70;;;;;;;;;;5072604;28;20048;-67
2022/08/19 07:50:45;;;;;;;0.90;0.30;;;;;;;;;;5091339;28;20388;-67
2022/08/19 07:53:15;;;;;;;0.95;0.65;;;;;;;;;;5091365;28;20048;-67
2022/08/19 07:55:45;;;;;;;0.60;0.28;;;;;;;;;;5091108;28;20395;-67
2022/08/19 07:58:19;;;;;;;2.17;1.05;;;;;;;;;;5091104;28;20043;-67
2022/08/19 08:00:51;;;;;;;1.30;0.90;;;;;;;;;;5091342;28;20044;-67
2022/08/19 08:09:10;;;;;;;1.35;0.77;;;;;;;;;;5072062;28;20052;-67
2022/08/19 08:09:11;;;;;;;1.60;1.00;;;;;;;;;;5088667;28;20071;-67
2022/08/19 08:11:58;;;;;;;1.85;0.95;;;;;;;;;;5055172;28;20083;-67
2022/08/19 08:14:43;;;;;;;3.20;0.80;;;;;;;;;;5088195;28;20059;-67
2022/08/19 08:17:19;;;;;;;1.92;0.73;;;;;;;;;;5088887;28;20051;-67
2022/08/19 08:20:11;;;;;;;1.35;0.75;;;;;;;;;;5048121;28;20069;-67
2022/08/19 08:25:36;;;;;;;1.67;0.90;;;;;;;;;;5015018;28;20061;-67
2022/08/19 08:28:08;;;;;;;0.80;0.63;;;;;;;;;;5032106;28;20057;-67
2022/08/19 08:30:47;;;;;;;1.48;0.73;;;;;;;;;;5017562;28;20049;-67
2022/08/19 08:33:22;;;;;;;1.27;0.40;;;;;;;;;;5047996;28;20452;-67
2022/08/19 08:36:05;;;;;;;1.48;0.80;;;;;;;;;;5000264;28;20076;-67
2022/08/19 08:38:36;;;;;;;1.13;0.90;;;;;;;;;;5028009;28;20049;-67
2022/08/19 08:41:23;;;;;;;1.90;1.30;;;;;;;;;;5027947;28;20057;-67
2022/08/19 08:43:55;;;;;;;2.58;0.90;;;;;;;;;;5028081;28;20054;-67
2022/08/19 08:46:34;;;;;;;1.05;0.63;;;;;;;;;;5007981;28;20049;-67
2022/08/19 08:49:41;;;;;;;1.92;0.80;;;;;;;;;;5008347;28;20064;-67
2022/08/19 08:52:21;;;;;;;1.25;0.85;;;;;;;;;;4975797;28;20050;-67
2022/08/19 08:54:58;;;;;;;2.10;0.80;;;;;;;;;;5008256;28;20056;-67
2022/08/19 08:57:48;;;;;;;1.48;1.23;;;;;;;;;;4982718;28;20060;-67
2022/08/19 09:00:26;;;;;;;1.67;0.73;;;;;;;;;;5027944;28;20536;-66
2022/08/19 09:02:59;;;;;;;1.63;0.80;;;;;;;;;;5027609;28;20498;-67
2022/08/19 09:05:53;;;;;;;1.70;1.10;;;;;;;;;;4964122;28;20062;-67
2022/08/19 09:08:48;;;;;;;1.10;1.00;;;;;;;;;;5011147;28;20206;-67
2022/08/19 09:11:42;;;;;;;1.65;1.08;;;;;;;;;;5027548;28;20060;-67
2022/08/19 09:14:41;;;;;;;2.65;0.55;;;;;;;;;;5027531;28;20523;-66
2022/08/19 09:17:30;;;;;;;0.80;0.70;;;;;;;;;;5049983;28;20061;-66
2022/08/19 09:20:08;;;;;;;0.80;0.63;;;;;;;;;;5051863;28;20045;-66
2022/08/19 09:22:43;;;;;;;2.17;1.10;;;;;;;;;;5018454;28;20053;-66
2022/08/19 09:25:18;;;;;;;1.15;0.70;;;;;;;;;;5074404;28;20078;-66
2022/08/19 09:28:02;;;;;;;2.70;1.08;;;;;;;;;;5094415;28;20040;-66
2022/08/19 09:30:41;;;;;;;2.45;1.63;;;;;;;;;;5094386;28;20048;-66
2022/08/19 09:33:12;;;;;;;1.52;1.08;;;;;;;;;;5093885;28;20047;-67
2022/08/19 09:35:43;;;;;;;1.52;1.00;;;;;;;;;;5071206;28;20059;-66
2022/08/19 09:38:22;;;;;;;2.28;2.08;;;;;;;;;;5071175;28;20060;-66
2022/08/19 09:40:52;;;;;;;1.40;1.10;;;;;;;;;;5031237;28;20053;-66
2022/08/19 09:43:25;;;;;;;2.38;1.23;;;;;;;;;;5011084;28;20054;-66
2022/08/19 09:46:12;;;;;;;2.35;1.23;;;;;;;;;;5011203;28;20058;-66
2022/08/19 09:48:48;;;;;;;1.63;1.10;;;;;;;;;;4995680;28;20054;-66
2022/08/19 09:51:25;;;;;;;2.88;1.33;;;;;;;;;;5011338;28;20073;-66
2022/08/19 09:54:01;;;;;;;4.72;1.77;;;;;;;;;;4963925;28;20065;-66
2022/08/19 09:56:33;;;;;;;5.63;2.92;;;;;;;;;;4995066;28;20054;-66
2022/08/19 09:59:04;;;;;;;3.78;2.00;;;;;;;;;;5011032;28;20054;-67
2022/08/19 10:01:34;;;;;;;3.78;1.77;;;;;;;;;;4995063;28;20058;-67
2022/08/19 10:04:08;;;;;;;3.20;1.90;;;;;;;;;;4962328;28;20050;-67
2022/08/19 10:06:51;;;;;;;2.70;1.42;;;;;;;;;;5011051;28;20072;-66
2022/08/19 10:09:23;;;;;;;1.88;1.42;;;;;;;;;;4962280;28;20054;-67
2022/08/19 10:12:04;;;;;;;2.33;1.50;;;;;;;;;;4991236;28;20532;-67
2022/08/19 10:14:39;;;;;;;2.67;1.10;;;;;;;;;;5010591;28;20069;-66
2022/08/19 10:17:10;;;;;;;1.85;1.40;;;;;;;;;;5010517;28;20050;-67
2022/08/19 10:19:49;;;;;;;1.15;0.63;;;;;;;;;;5010599;28;20465;-67
2022/08/19 10:22:24;;;;;;;2.28;1.20;;;;;;;;;;5030243;28;20057;-67
2022/08/19 10:24:54;;;;;;;4.47;1.30;;;;;;;;;;5030425;28;20037;-66
2022/08/19 10:27:25;;;;;;;3.53;1.70;;;;;;;;;;4989774;28;20066;-67
2022/08/19 10:30:00;;;;;;;2.92;1.20;;;;;;;;;;4991000;28;20406;-67
2022/08/19 10:32:31;;;;;;;2.83;1.90;;;;;;;;;;4990629;28;20056;-67
2022/08/19 10:35:07;;;;;;;5.30;2.10;;;;;;;;;;4971108;28;20054;-66
2022/08/19 10:37:39;;;;;;;5.07;1.92;;;;;;;;;;4971124;28;20054;-67
2022/08/19 10:40:27;;;;;;;5.20;1.63;;;;;;;;;;4957829;28;20066;-67
2022/08/19 10:42:58;;;;;;;9.15;1.52;;;;;;;;;;4971085;28;20059;-67
2022/08/19 10:45:28;;;;;;;3.05;1.58;;;;;;;;;;4971209;28;20102;-67
2022/08/19 10:47:58;;;;;;;2.75;1.10;;;;;;;;;;4971063;28;20415;-67
2022/08/19 10:53:23;;;;;;;5.03;2.42;;;;;;;;;;5029712;28;20057;-67
2022/08/19 10:58:44;;;;;;;4.05;2.45;;;;;;;;;;5029363;28;20060;-67
2022/08/19 11:01:15;;;;;;;6.72;2.67;;;;;;;;;;5029623;28;20056;-67
2022/08/19 11:03:45;;;;;;;8.45;3.38;;;;;;;;;;4989926;28;20061;-67
2022/08/19 11:06:15;;;;;;;8.77;3.92;;;;;;;;;;4973286;28;20054;-67
2022/08/19 11:08:45;;;;;;;6.45;2.85;;;;;;;;;;4990259;28;20061;-68
2022/08/19 11:11:16;;;;;;;7.15;2.47;;;;;;;;;;4942015;28;20058;-67
2022/08/19 11:13:47;;;;;;;16.35;7.47;;;;;;;;;;4970412;28;20047;-67
2022/08/19 11:16:21;;;;;;;5.45;2.80;;;;;;;;;;4931831;29;20044;-67
2022/08/19 11:18:54;;;;;;;5.65;2.67;;;;;;;;;;4932041;29;20078;-68
2022/08/19 11:21:32;;;;;;;5.20;2.63;;;;;;;;;;4932045;29;20056;-67
2022/08/19 11:24:07;;;;;;;4.85;2.10;;;;;;;;;;4932006;29;20055;-67
2022/08/19 11:26:39;;;;;;;3.85;2.40;;;;;;;;;;4900580;29;20064;-67
2022/08/19 11:29:12;;;;;;;3.47;2.08;;;;;;;;;;4932066;29;20055;-67
2022/08/19 11:31:46;;;;;;;4.82;1.10;;;;;;;;;;4931777;29;20542;-67
2022/08/19 11:34:20;;;;;;;4.40;1.98;;;;;;;;;;4900329;29;20100;-67
2022/08/19 11:36:52;;;;;;;4.82;2.40;;;;;;;;;;4931771;29;20527;-67
2022/08/19 11:39:22;;;;;;;4.75;2.05;;;;;;;;;;4927869;29;20055;-67
2022/08/19 11:41:53;;;;;;;6.05;2.35;;;;;;;;;;4939006;28;20163;-67
2022/08/19 11:44:24;;;;;;;4.63;2.38;;;;;;;;;;4946771;28;20050;-68
2022/08/19 11:46:55;;;;;;;6.35;2.80;;;;;;;;;;4973020;28;20058;-68
2022/08/19 11:49:28;;;;;;;7.38;3.60;;;;;;;;;;4950435;28;20059;-69
2022/08/19 11:51:58;;;;;;;26.52;10.23;;;;;;;;;;4978508;28;20058;-69
2022/08/19 11:54:30;;;;;;;6.07;1.58;;;;;;;;;;5017771;28;20061;-68
2022/08/19 11:57:03;;;;;;;5.38;1.95;;;;;;;;;;4988791;28;20118;-67
2022/08/19 11:59:34;;;;;;;3.78;1.23;;;;;;;;;;4989420;28;20050;-67
2022/08/19 12:02:05;;;;;;;3.10;1.67;;;;;;;;;;4989261;28;20057;-67
2022/08/19 12:04:35;;;;;;;9.35;2.92;;;;;;;;;;4956861;28;20069;-67
2022/08/19 12:07:06;;;;;;;3.92;1.80;;;;;;;;;;4989076;28;20065;-66
2022/08/19 12:09:36;;;;;;;7.88;2.30;;;;;;;;;;4989290;28;20055;-67
2022/08/19 12:12:11;;;;;;;4.28;2.22;;;;;;;;;;4950402;29;20063;-67
2022/08/19 12:14:42;;;;;;;2.30;0.80;;;;;;;;;;4949940;29;20467;-67
2022/08/19 12:17:13;;;;;;;3.33;2.25;;;;;;;;;;4911924;29;20048;-67
2022/08/19 12:19:44;;;;;;;2.33;1.10;;;;;;;;;;4893050;29;20061;-67
2022/08/19 12:22:14;;;;;;;2.67;1.42;;;;;;;;;;4893209;29;20205;-67
2022/08/19 12:24:45;;;;;;;2.78;0.93;;;;;;;;;;4893359;29;20454;-68
2022/08/19 12:27:16;;;;;;;4.82;2.38;;;;;;;;;;4914070;29;20077;-68
2022/08/19 12:30:09;;;;;;;5.70;1.88;;;;;;;;;;4930930;29;20159;-67
2022/08/19 12:32:40;;;;;;;6.22;1.67;;;;;;;;;;4931004;29;20129;-67
2022/08/19 12:35:11;;;;;;;8.43;3.70;;;;;;;;;;4957855;28;20051;-68
2022/08/19 12:37:44;;;;;;;21.65;8.02;;;;;;;;;;4969133;28;20062;-68
2022/08/19 12:40:26;;;;;;;6.25;3.58;;;;;;;;;;4954982;28;20059;-67
2022/08/19 12:42:56;;;;;;;5.82;2.30;;;;;;;;;;4969141;28;20078;-67
2022/08/19 12:45:27;;;;;;;4.43;1.88;;;;;;;;;;4969072;28;20055;-67
2022/08/19 12:47:58;;;;;;;3.28;1.00;;;;;;;;;;4969442;28;20435;-67
2022/08/19 12:50:31;;;;;;;3.10;1.75;;;;;;;;;;4985576;28;20068;-66
2022/08/19 12:53:01;;;;;;;2.17;1.10;;;;;;;;;;4999505;28;20049;-66
2022/08/19 12:55:32;;;;;;;5.60;1.95;;;;;;;;;;5013579;28;20057;-68
2022/08/19 12:58:02;;;;;;;6.05;1.90;;;;;;;;;;5083974;28;20047;-67
2022/08/19 13:00:33;;;;;;;7.50;2.75;;;;;;;;;;5094598;28;20048;-67
2022/08/19 13:03:04;;;;;;;3.05;1.42;;;;;;;;;;5058995;28;20051;-67
2022/08/19 13:05:34;;;;;;;14.32;7.13;;;;;;;;;;5094449;28;20040;-66
2022/08/19 13:08:05;;;;;;;4.63;2.55;;;;;;;;;;5094451;28;20051;-67
2022/08/19 13:10:36;;;;;;;2.78;1.05;;;;;;;;;;5093360;28;20055;-66
2022/08/19 13:13:11;;;;;;;2.65;1.10;;;;;;;;;;5094803;28;20081;-66
2022/08/19 13:15:44;;;;;;;1.83;1.00;;;;;;;;;;5075077;28;20067;-67
2022/08/19 13:18:15;;;;;;;1.77;0.90;;;;;;;;;;5094267;28;20044;-67
2022/08/19 13:20:46;;;;;;;4.25;1.42;;;;;;;;;;5093091;28;20048;-67
2022/08/19 13:23:21;;;;;;;1.70;1.33;;;;;;;;;;5071098;28;20051;-66
2022/08/19 13:26:03;;;;;;;1.58;0.90;;;;;;;;;;5071382;28;20060;-67
2022/08/19 13:34:16;;;;;;;2.65;0.88;;;;;;;;;;5071232;28;20049;-67
2022/08/19 13:36:46;;;;;;;3.63;2.70;;;;;;;;;;5050907;28;20056;-67
2022/08/19 13:39:17;;;;;;;3.97;1.45;;;;;;;;;;5051155;28;20178;-67
2022/08/19 13:41:48;;;;;;;3.38;1.77;;;;;;;;;;5018191;28;20524;-67
2022/08/19 13:44:20;;;;;;;4.72;2.25;;;;;;;;;;5034672;28;20053;-66
2022/08/19 13:46:53;;;;;;;2.72;1.17;;;;;;;;;;5051016;28;20048;-67
2022/08/19 13:49:23;;;;;;;2.78;1.23;;;;;;;;;;5050982;28;20053;-67
2022/08/19 13:51:53;;;;;;;2.28;1.42;;;;;;;;;;5050900;28;20052;-66
2022/08/19 13:54:24;;;;;;;2.03;1.08;;;;;;;;;;5050891;28;20548;-66
2022/08/19 13:56:55;;;;;;;1.42;0.82;;;;;;;;;;5050774;28;20056;-68
2022/08/19 13:59:25;;;;;;;2.72;1.10;;;;;;;;;;5010573;28;20054;-66
2022/08/19 14:02:00;;;;;;;0.80;0.60;;;;;;;;;;5027783;28;20053;-67
2022/08/19 14:04:31;;;;;;;2.45;1.00;;;;;;;;;;5030399;28;20061;-66
2022/08/19 14:07:01;;;;;;;4.88;1.50;;;;;;;;;;4997780;28;20058;-68
2022/08/19 14:09:31;;;;;;;1.90;1.20;;;;;;;;;;5030632;28;20045;-67
2022/08/19 14:12:02;;;;;;;0.80;0.50;;;;;;;;;;4998041;28;20049;-67
2022/08/19 14:14:36;;;;;;;2.80;1.40;;;;;;;;;;5052741;28;20068;-66
2022/08/19 14:17:09;;;;;;;3.10;1.67;;;;;;;;;;5054282;28;20504;-67
2022/08/19 14:19:40;;;;;;;3.05;1.45;;;;;;;;;;5070473;28;20040;-67
2022/08/19 14:22:16;;;;;;;4.80;0.95;;;;;;;;;;5054749;28;20803;-67
2022/08/19 14:24:50;;;;;;;1.50;0.77;;;;;;;;;;5070244;28;20060;-68
2022/08/19 14:27:24;;;;;;;3.25;1.25;;;;;;;;;;5070343;28;20558;-67
2022/08/19 14:29:55;;;;;;;1.55;0.90;;;;;;;;;;5033572;28;20052;-67
2022/08/19 14:32:26;;;;;;;7.88;1.42;;;;;;;;;;5017000;28;20060;-67
2022/08/19 14:34:57;;;;;;;4.93;0.60;;;;;;;;;;5001662;28;20386;-68
2022/08/19 14:37:27;;;;;;;2.25;1.08;;;;;;;;;;5076531;28;20099;-67
2022/08/19 14:39:57;;;;;;;2.55;1.02;;;;;;;;;;5073846;28;20055;-66
2022/08/19 14:42:28;;;;;;;2.20;1.02;;;;;;;;;;5000101;28;20048;-67
2022/08/19 14:44:59;;;;;;;2.00;0.90;;;;;;;;;;5049662;28;20061;-67
2022/08/19 14:53:17;;;;;;;1.83;0.60;;;;;;;;;;5121088;27;20442;-66
2022/08/19 14:55:49;;;;;;;2.03;0.88;;;;;;;;;;5087344;28;20048;-65
2022/08/19 14:58:19;;;;;;;4.35;1.42;;;;;;;;;;5087331;28;20052;-64
2022/08/19 15:01:00;;;;;;;1.85;0.55;;;;;;;;;;5069838;28;20044;-65
2022/08/19 15:03:31;;;;;;;5.00;1.05;;;;;;;;;;5087386;28;20045;-65
2022/08/19 15:06:04;;;;;;;2.40;0.88;;;;;;;;;;5071263;28;20040;-65
2022/08/19 15:08:38;;;;;;;1.25;0.65;;;;;;;;;;5087372;28;20048;-66
2022/08/19 15:11:15;;;;;;;5.03;1.33;;;;;;;;;;5086991;28;20045;-65
2022/08/19 15:13:46;;;;;;;5.30;2.22;;;;;;;;;;5059324;28;20091;-66
2022/08/19 15:16:17;;;;;;;2.50;1.00;;;;;;;;;;5023325;28;20053;-66
2022/08/19 15:18:53;;;;;;;3.17;0.98;;;;;;;;;;5025436;28;20049;-66
2022/08/19 15:21:25;;;;;;;1.95;0.90;;;;;;;;;;5025255;28;20049;-64
2022/08/19 15:23:58;;;;;;;2.30;0.73;;;;;;;;;;4990558;28;20062;-66
2022/08/19 15:26:31;;;;;;;0.82;0.32;;;;;;;;;;5026065;28;20062;-65
2022/08/19 15:29:03;;;;;;;1.55;0.63;;;;;;;;;;5042702;28;20061;-65
2022/08/19 15:31:35;;;;;;;0.57;0.30;;;;;;;;;;5026447;28;20061;-66
2022/08/19 15:34:07;;;;;;;0.95;0.40;;;;;;;;;;5042017;28;20048;-66
2022/08/19 15:36:38;;;;;;;0.82;0.30;;;;;;;;;;5066302;28;20053;-67
2022/08/19 15:39:09;;;;;;;2.53;1.50;;;;;;;;;;5066386;28;20500;-66
2022/08/19 15:41:39;;;;;;;1.27;0.70;;;;;;;;;;5066096;28;20053;-65
2022/08/19 15:44:13;;;;;;;3.33;0.55;;;;;;;;;;5033637;28;20407;-66
2022/08/19 15:46:45;;;;;;;0.75;0.38;;;;;;;;;;5032710;28;20049;-65
2022/08/19 15:49:18;;;;;;;0.73;0.30;;;;;;;;;;5045437;28;20055;-66
2022/08/19 15:51:51;;;;;;;0.70;0.20;;;;;;;;;;5095429;28;20052;-66
2022/08/19 15:54:22;;;;;;;1.23;0.30;;;;;;;;;;5085162;28;20043;-66